Time;durP1;ratioP1;P1;durP2;ratioP2;P2;SDS_P1;SDS_P2;PMS_P1;PMS_P2;Temp;Humidity;BMP_temperature;BMP_pressure;BME280_temperature;BME280_humidity;BME280_pressure;Samples;Min_cycle;Max_cycle;Signal;HPM_P1;HPM_P2
2021/09/09 00:00:08;;;;;;;32.35;15.80;;;;;;;12.81;100.00;95668.59;1034705;28;20546;-69
2021/09/09 00:00:38;;;;;;;22.95;15.48;;;;;;;12.79;100.00;95660.19;1030808;28;20214;-69
2021/09/09 00:01:09;;;;;;;20.55;15.20;;;;;;;12.79;100.00;95660.19;1030656;28;20273;-67
2021/09/09 00:01:39;;;;;;;18.55;16.00;;;;;;;12.79;100.00;95662.81;1029804;28;20531;-69
2021/09/09 00:02:10;;;;;;;18.65;15.80;;;;;;;12.67;100.00;95646.59;1027008;28;20026;-68
2021/09/09 00:02:40;;;;;;;18.83;15.63;;;;;;;12.76;100.00;95652.84;1030171;28;20053;-69
2021/09/09 00:03:11;;;;;;;19.58;15.68;;;;;;;12.76;100.00;95652.84;1030507;28;20029;-68
2021/09/09 00:03:41;;;;;;;23.00;15.77;;;;;;;12.82;100.00;95657.00;1026461;28;20022;-69
2021/09/09 00:04:12;;;;;;;24.75;16.08;;;;;;;12.76;100.00;95650.22;1018590;29;20036;-69
2021/09/09 00:04:42;;;;;;;21.73;16.27;;;;;;;12.74;100.00;95653.13;1022905;28;20696;-68
2021/09/09 00:05:13;;;;;;;20.70;16.08;;;;;;;12.80;100.00;95661.75;1029933;28;20030;-69
2021/09/09 00:05:44;;;;;;;20.90;15.70;;;;;;;12.80;100.00;95664.38;1026806;28;20030;-69
2021/09/09 00:06:14;;;;;;;18.88;15.23;;;;;;;12.80;100.00;95661.75;1030679;28;20034;-67
2021/09/09 00:06:45;;;;;;;20.48;14.38;;;;;;;12.80;100.00;95660.97;1030161;28;20273;-69
2021/09/09 00:07:15;;;;;;;18.48;14.52;;;;;;;12.81;100.00;95668.59;1030623;28;20038;-67
2021/09/09 00:07:46;;;;;;;17.38;14.68;;;;;;;12.81;100.00;95665.97;1025386;28;20624;-68
2021/09/09 00:08:17;;;;;;;18.85;14.80;;;;;;;12.75;100.00;95653.91;1026557;28;20031;-69
2021/09/09 00:08:47;;;;;;;18.08;15.02;;;;;;;12.80;100.00;95660.97;1026372;28;20489;-69
2021/09/09 00:09:19;;;;;;;17.67;14.55;;;;;;;12.80;100.00;95661.75;1022633;28;20035;-69
2021/09/09 00:09:49;;;;;;;17.13;14.90;;;;;;;12.79;100.00;95664.69;1026881;28;20658;-66
2021/09/09 00:10:20;;;;;;;19.63;15.00;;;;;;;12.78;100.00;95666.53;1030843;28;20331;-69
2021/09/09 00:10:50;;;;;;;18.95;15.18;;;;;;;12.79;100.00;95665.47;1034795;28;20632;-69
2021/09/09 00:11:20;;;;;;;17.05;15.05;;;;;;;12.79;100.00;95665.47;1033836;28;20057;-69
2021/09/09 00:11:51;;;;;;;18.10;16.00;;;;;;;12.79;100.00;95668.09;1025985;28;20186;-69
2021/09/09 00:12:21;;;;;;;23.52;15.75;;;;;;;12.77;100.00;95664.94;1026663;28;20027;-68
2021/09/09 00:12:52;;;;;;;17.58;15.65;;;;;;;12.76;100.00;95666.00;1030667;28;20026;-69
2021/09/09 00:13:22;;;;;;;20.83;16.10;;;;;;;12.75;100.00;95664.44;1026566;28;20031;-69
2021/09/09 00:13:53;;;;;;;17.88;14.90;;;;;;;12.68;100.00;95651.59;1030366;28;20033;-69
2021/09/09 00:14:23;;;;;;;19.13;16.13;;;;;;;12.72;100.00;95660.53;1026889;28;20043;-69
2021/09/09 00:14:54;;;;;;;24.20;16.15;;;;;;;12.68;100.00;95658.72;1022571;29;20061;-68
2021/09/09 00:15:27;;;;;;;16.98;15.10;;;;;;;12.72;100.00;95665.00;1026171;28;20035;-69
2021/09/09 00:15:58;;;;;;;24.55;16.75;;;;;;;12.70;100.00;95661.84;1022337;28;20422;-68
2021/09/09 00:16:28;;;;;;;18.10;16.20;;;;;;;12.70;100.00;95661.84;1018591;29;20318;-69
2021/09/09 00:16:58;;;;;;;21.17;15.82;;;;;;;12.66;100.00;95650.31;1022276;28;20116;-69
2021/09/09 00:17:29;;;;;;;18.40;15.90;;;;;;;12.69;100.00;95655.03;1030558;28;20034;-67
2021/09/09 00:17:59;;;;;;;21.60;16.85;;;;;;;12.66;100.00;95656.34;1030804;28;20030;-65
2021/09/09 00:18:30;;;;;;;19.95;15.90;;;;;;;12.66;100.00;95661.63;1030667;28;20077;-67
2021/09/09 00:19:00;;;;;;;20.77;15.68;;;;;;;12.66;100.00;95659.00;1034392;28;20658;-68
2021/09/09 00:19:31;;;;;;;24.80;17.05;;;;;;;12.66;100.00;95655.56;1030519;28;20030;-69
2021/09/09 00:20:01;;;;;;;20.40;16.08;;;;;;;12.63;100.00;95656.13;1026691;28;20019;-68
2021/09/09 00:20:32;;;;;;;19.63;15.25;;;;;;;12.64;100.00;95658.50;1030498;28;20664;-69
2021/09/09 00:21:03;;;;;;;24.33;16.95;;;;;;;12.60;100.00;95661.94;1034586;28;20808;-69
2021/09/09 00:21:33;;;;;;;19.80;15.90;;;;;;;12.61;100.00;95663.50;1030136;28;20027;-68
2021/09/09 00:22:03;;;;;;;19.05;16.05;;;;;;;12.60;100.00;95656.69;1030403;28;20030;-69
2021/09/09 00:22:34;;;;;;;19.52;15.20;;;;;;;12.60;100.00;95664.56;1030586;28;20084;-68
2021/09/09 00:23:04;;;;;;;17.77;15.55;;;;;;;12.58;100.00;95658.81;1034807;28;20033;-69
2021/09/09 00:23:35;;;;;;;17.73;15.60;;;;;;;12.59;100.00;95655.13;1031171;28;20027;-69
2021/09/09 00:24:05;;;;;;;17.27;14.50;;;;;;;12.61;100.00;95658.25;1030393;28;20026;-69
2021/09/09 00:24:36;;;;;;;18.13;16.15;;;;;;;12.60;100.00;95661.94;1030551;28;20029;-69
2021/09/09 00:25:07;;;;;;;17.00;14.25;;;;;;;12.59;100.00;95649.84;1026502;28;20031;-69
2021/09/09 00:25:37;;;;;;;22.17;16.35;;;;;;;12.59;100.00;95652.47;1022498;28;20026;-68
2021/09/09 00:26:08;;;;;;;29.60;15.23;;;;;;;12.59;100.00;95660.38;1026544;28;20266;-70
2021/09/09 00:26:38;;;;;;;18.02;15.05;;;;;;;12.60;100.00;95656.69;1026071;28;20031;-68
2021/09/09 00:27:09;;;;;;;18.65;16.15;;;;;;;12.62;100.00;95654.56;1027031;28;20432;-67
2021/09/09 00:27:39;;;;;;;30.67;15.57;;;;;;;12.59;100.00;95655.91;1022562;29;20130;-69
2021/09/09 00:28:10;;;;;;;22.33;16.38;;;;;;;12.62;100.00;95655.34;1022414;29;20031;-68
2021/09/09 00:28:40;;;;;;;19.00;15.75;;;;;;;12.62;100.00;95663.25;1017399;29;20500;-67
2021/09/09 00:29:11;;;;;;;20.05;15.23;;;;;;;12.62;100.00;95660.59;1017958;29;20091;-68
2021/09/09 00:29:41;;;;;;;16.65;14.18;;;;;;;12.64;100.00;95662.94;1022582;28;20376;-69
2021/09/09 00:30:12;;;;;;;19.30;15.77;;;;;;;12.64;100.00;95657.69;1022186;28;20031;-69
2021/09/09 00:30:46;;;;;;;25.30;16.42;;;;;;;12.65;100.00;95660.06;1018399;29;20027;-69
2021/09/09 00:31:16;;;;;;;21.25;14.73;;;;;;;12.62;100.00;95659.81;1026608;28;20148;-69
2021/09/09 00:31:47;;;;;;;19.23;15.80;;;;;;;12.65;100.00;95664.53;1018345;29;20302;-69
2021/09/09 00:32:17;;;;;;;18.65;15.48;;;;;;;12.64;100.00;95660.31;1028984;28;20026;-69
2021/09/09 00:32:47;;;;;;;21.98;14.95;;;;;;;12.62;100.00;95659.81;1034689;28;20512;-69
2021/09/09 00:33:18;;;;;;;21.77;15.93;;;;;;;12.56;100.00;95650.41;1026489;28;20034;-69
2021/09/09 00:33:49;;;;;;;18.67;16.42;;;;;;;12.60;100.00;95661.94;1030318;28;20047;-67
2021/09/09 00:34:19;;;;;;;18.90;15.77;;;;;;;12.58;100.00;95658.81;1030038;28;20030;-68
2021/09/09 00:34:50;;;;;;;17.77;15.88;;;;;;;12.57;100.00;95662.50;1022432;29;20026;-68
2021/09/09 00:35:21;;;;;;;19.17;14.93;;;;;;;12.55;100.00;95669.91;1026539;28;20393;-68
2021/09/09 00:35:51;;;;;;;18.73;16.30;;;;;;;12.55;100.00;95660.16;1026122;28;20066;-69
2021/09/09 00:36:24;;;;;;;22.80;15.57;;;;;;;12.55;100.00;95662.00;1028085;28;20042;-69
2021/09/09 00:36:58;;;;;;;17.20;15.38;;;;;;;12.54;100.00;95660.41;1035236;28;20272;-68
2021/09/09 00:37:28;;;;;;;18.83;15.90;;;;;;;12.53;100.00;95664.91;1034687;28;20041;-68
2021/09/09 00:38:00;;;;;;;23.92;15.18;;;;;;;12.51;100.00;95669.66;1030916;28;20787;-69
2021/09/09 00:38:30;;;;;;;17.95;14.75;;;;;;;12.44;100.00;95654.19;1031000;28;20045;-65
2021/09/09 00:39:01;;;;;;;19.65;15.52;;;;;;;12.50;100.00;95666.22;1027354;28;20292;-69
2021/09/09 00:39:31;;;;;;;18.90;15.18;;;;;;;12.49;100.00;95667.28;1029984;28;20037;-69
2021/09/09 00:40:02;;;;;;;17.35;14.88;;;;;;;12.49;100.00;95664.66;1029877;28;20038;-69
2021/09/09 00:40:33;;;;;;;23.35;16.23;;;;;;;12.49;100.00;95669.94;1023673;28;20035;-69
2021/09/09 00:41:03;;;;;;;20.00;15.25;;;;;;;12.49;100.00;95666.50;1025934;28;20305;-69
2021/09/09 00:41:34;;;;;;;23.83;16.25;;;;;;;12.48;100.00;95664.94;1026317;28;20027;-68
2021/09/09 00:42:04;;;;;;;28.58;15.90;;;;;;;12.49;100.00;95669.94;1026766;28;20524;-69
2021/09/09 00:42:35;;;;;;;22.88;15.30;;;;;;;12.49;100.00;95664.66;1028392;28;20030;-66
2021/09/09 00:43:05;;;;;;;19.17;15.55;;;;;;;12.45;100.00;95666.28;1030829;28;20038;-68
2021/09/09 00:43:36;;;;;;;22.85;15.18;;;;;;;12.46;100.00;95662.56;1030786;28;20026;-69
2021/09/09 00:44:19;;;;;;;19.58;17.25;;;;;;;12.43;100.00;95657.88;1026455;28;20031;-69
2021/09/09 00:44:50;;;;;;;19.35;15.68;;;;;;;12.48;100.00;95668.38;1024492;28;20428;-68
2021/09/09 00:45:20;;;;;;;18.92;15.85;;;;;;;12.46;100.00;95657.31;1022727;28;20254;-68
2021/09/09 00:45:54;;;;;;;23.25;16.27;;;;;;;12.52;100.00;95665.19;1025729;28;20471;-68
2021/09/09 00:46:24;;;;;;;19.52;16.17;;;;;;;12.50;100.00;95658.31;1018823;29;20031;-69
2021/09/09 00:47:05;;;;;;;20.80;16.33;;;;;;;12.47;100.00;95653.66;1022256;29;20283;-68
2021/09/09 00:47:36;;;;;;;20.33;16.40;;;;;;;12.49;100.00;95656.75;1021452;28;20082;-69
2021/09/09 00:48:06;;;;;;;20.00;17.15;;;;;;;12.53;100.00;95656.22;1028338;28;20656;-69
2021/09/09 00:48:38;;;;;;;22.98;17.38;;;;;;;12.52;100.00;95660.69;1028918;28;20042;-69
2021/09/09 00:49:08;;;;;;;21.60;17.23;;;;;;;12.52;100.00;95663.34;1034160;28;20537;-68
2021/09/09 00:49:42;;;;;;;20.10;17.17;;;;;;;12.47;100.00;95655.47;1037568;28;20932;-69
2021/09/09 00:50:13;;;;;;;21.42;16.83;;;;;;;12.50;100.00;95662.81;1035297;28;20272;-69
2021/09/09 00:50:43;;;;;;;21.40;16.30;;;;;;;12.50;100.00;95665.44;1027766;28;20273;-68
2021/09/09 00:51:14;;;;;;;20.80;16.48;;;;;;;12.52;100.00;95665.19;1022544;28;20043;-68
2021/09/09 00:51:44;;;;;;;21.00;16.20;;;;;;;12.53;100.00;95658.84;1030708;28;20026;-68
2021/09/09 00:52:15;;;;;;;23.40;17.60;;;;;;;12.48;100.00;95655.19;1034095;28;20026;-67
2021/09/09 00:52:47;;;;;;;19.83;17.10;;;;;;;12.53;100.00;95669.38;1028864;28;20499;-69
2021/09/09 00:53:18;;;;;;;22.83;16.50;;;;;;;12.51;100.00;95664.41;1019861;29;20095;-65
2021/09/09 00:53:49;;;;;;;23.00;18.33;;;;;;;12.36;100.00;95638.97;1034502;28;20764;-66
2021/09/09 00:54:19;;;;;;;20.17;17.60;;;;;;;12.44;100.00;95654.19;1030556;28;20269;-65
2021/09/09 00:54:50;;;;;;;22.15;17.85;;;;;;;12.49;100.00;95662.03;1030664;28;20026;-68
2021/09/09 00:55:20;;;;;;;24.65;18.58;;;;;;;12.48;100.00;95663.09;1034854;28;20021;-68
2021/09/09 00:55:51;;;;;;;20.25;17.52;;;;;;;12.47;100.00;95666.00;1030529;28;20037;-69
2021/09/09 00:56:21;;;;;;;21.63;16.75;;;;;;;12.45;100.00;95663.66;1030362;28;20878;-68
2021/09/09 00:56:52;;;;;;;24.98;19.02;;;;;;;12.46;100.00;95665.22;1026631;28;20523;-68
2021/09/09 00:57:23;;;;;;;20.05;17.67;;;;;;;12.43;100.00;95663.13;1026942;28;20022;-69
2021/09/09 00:57:53;;;;;;;21.73;18.02;;;;;;;12.43;100.00;95662.34;1026676;28;20026;-69
2021/09/09 00:58:24;;;;;;;22.25;17.75;;;;;;;12.40;100.00;95658.41;1030368;28;20115;-69
2021/09/09 00:58:54;;;;;;;25.90;18.13;;;;;;;12.39;100.00;95662.13;1034301;28;20816;-69
2021/09/09 00:59:25;;;;;;;23.98;19.00;;;;;;;12.39;100.00;95664.75;1027725;28;20050;-69
2021/09/09 00:59:56;;;;;;;21.92;18.25;;;;;;;12.42;100.00;95666.03;1022571;29;20027;-69
2021/09/09 01:00:26;;;;;;;24.67;18.30;;;;;;;12.43;100.00;95657.88;1026692;28;20775;-69
2021/09/09 01:00:57;;;;;;;22.70;18.80;;;;;;;12.44;100.00;95659.47;1024866;28;20519;-69
2021/09/09 01:01:27;;;;;;;26.50;20.35;;;;;;;12.45;100.00;95666.28;1024159;28;20066;-69
2021/09/09 01:01:58;;;;;;;22.63;19.70;;;;;;;12.39;100.00;95651.59;1026939;28;20037;-71
2021/09/09 01:02:28;;;;;;;26.02;19.48;;;;;;;12.45;100.00;95662.88;1024993;28;20031;-67
2021/09/09 01:02:58;;;;;;;27.92;20.40;;;;;;;12.46;100.00;95662.56;1030911;28;20025;-70
2021/09/09 01:03:29;;;;;;;28.13;20.42;;;;;;;12.44;100.00;95663.91;1031806;28;20033;-69
2021/09/09 01:03:59;;;;;;;28.02;19.15;;;;;;;12.42;100.00;95660.78;1034888;28;20014;-64
2021/09/09 01:04:30;;;;;;;34.78;19.80;;;;;;;12.40;100.00;95662.91;1038427;28;20029;-67
2021/09/09 01:05:00;;;;;;;28.90;19.85;;;;;;;12.41;100.00;95664.47;1038364;28;20620;-68
2021/09/09 01:05:31;;;;;;;32.92;19.23;;;;;;;12.37;100.00;95653.69;1034606;28;20024;-68
2021/09/09 01:06:01;;;;;;;27.70;19.85;;;;;;;12.32;100.00;95660.88;1034549;28;20025;-66
2021/09/09 01:06:31;;;;;;;25.23;19.83;;;;;;;12.35;100.00;95663.72;1031242;28;20097;-68
2021/09/09 01:07:02;;;;;;;24.52;19.40;;;;;;;12.35;100.00;95661.09;1030335;28;20026;-69
2021/09/09 01:07:33;;;;;;;27.40;19.58;;;;;;;12.33;100.00;95657.16;1026462;28;20728;-69
2021/09/09 01:08:04;;;;;;;23.15;19.30;;;;;;;12.38;100.00;95660.56;1022997;28;20011;-69
2021/09/09 01:08:34;;;;;;;25.85;19.40;;;;;;;12.32;100.00;95651.13;1030226;28;20018;-69
2021/09/09 01:09:05;;;;;;;25.30;19.27;;;;;;;12.40;100.00;95663.69;1022678;28;20259;-66
2021/09/09 01:09:35;;;;;;;25.10;19.75;;;;;;;12.41;100.00;95660.00;1018775;29;20023;-69
2021/09/09 01:10:06;;;;;;;26.08;20.88;;;;;;;12.41;100.00;95660.00;1018635;29;20478;-69
2021/09/09 01:10:36;;;;;;;25.90;19.13;;;;;;;12.24;100.00;95634.09;1018879;28;20039;-66
2021/09/09 01:11:07;;;;;;;25.17;20.75;;;;;;;12.38;100.00;95654.50;1022714;28;20023;-67
2021/09/09 01:11:37;;;;;;;26.10;19.40;;;;;;;12.44;100.00;95659.47;1026452;28;20019;-67
2021/09/09 01:12:08;;;;;;;25.25;19.92;;;;;;;12.44;100.00;95664.72;1031238;28;20026;-67
2021/09/09 01:12:38;;;;;;;24.40;20.02;;;;;;;12.45;100.00;95658.38;1034604;28;20024;-69
2021/09/09 01:13:09;;;;;;;27.20;20.52;;;;;;;12.43;100.00;95654.44;1034601;28;20029;-68
2021/09/09 01:13:51;;;;;;;26.77;20.27;;;;;;;12.43;100.00;95663.13;1028269;28;20050;-69
2021/09/09 01:14:21;;;;;;;32.78;20.88;;;;;;;12.41;100.00;95662.63;1030728;28;20109;-67
2021/09/09 01:14:52;;;;;;;507.52;308.27;;;;;;;12.38;100.00;95654.50;1033554;28;20267;-67
2021/09/09 01:15:22;;;;;;;0.00;0.00;;;;;;;12.39;100.00;95662.13;1032166;28;20018;-69
2021/09/09 01:15:56;;;;;;;0.00;0.00;;;;;;;12.24;100.00;95644.63;1038564;28;20022;-67
2021/09/09 01:16:26;;;;;;;0.00;0.00;;;;;;;12.36;100.00;95665.28;1028500;28;20404;-67
2021/09/09 01:16:57;;;;;;;51.13;45.75;;;;;;;12.34;100.00;95662.16;1027419;28;20258;-67
2021/09/09 01:17:27;;;;;;;71.07;65.60;;;;;;;12.35;100.00;95657.69;1033576;28;20034;-67
2021/09/09 01:17:58;;;;;;;0.00;0.00;;;;;;;12.34;100.00;95664.00;1035158;28;20471;-70
2021/09/09 01:18:28;;;;;;;245.63;161.57;;;;;;;12.32;100.00;95661.66;1038809;28;20021;-65
2021/09/09 01:18:59;;;;;;;168.15;57.97;;;;;;;12.31;100.00;95657.44;1035032;28;20430;-66
2021/09/09 01:19:31;;;;;;;27.60;20.90;;;;;;;12.30;100.00;95669.00;1034855;28;20026;-68
2021/09/09 01:20:02;;;;;;;24.90;19.88;;;;;;;12.26;100.00;95657.47;1038612;28;20108;-67
2021/09/09 01:20:32;;;;;;;34.50;21.60;;;;;;;12.34;100.00;95658.72;1030596;28;20284;-69
2021/09/09 01:21:02;;;;;;;44.88;21.60;;;;;;;12.40;100.00;95663.69;1031028;28;20023;-64
2021/09/09 01:21:33;;;;;;;34.03;24.00;;;;;;;12.45;100.00;95668.13;1029886;28;20034;-67
2021/09/09 01:22:04;;;;;;;29.48;24.65;;;;;;;12.48;100.00;95668.38;1029778;28;20081;-68
2021/09/09 01:22:34;;;;;;;34.63;26.08;;;;;;;12.54;100.00;95660.41;1030376;28;20030;-67
2021/09/09 01:23:05;;;;;;;31.65;25.00;;;;;;;12.55;100.00;95664.63;1030844;28;20813;-68
2021/09/09 01:23:36;;;;;;;36.00;26.67;;;;;;;12.56;100.00;95659.06;1023293;28;20016;-69
2021/09/09 01:24:12;;;;;;;32.25;26.42;;;;;;;12.64;100.00;95665.59;1026510;28;20031;-66
2021/09/09 01:24:42;;;;;;;32.47;25.00;;;;;;;12.66;100.00;95660.84;1026694;28;20030;-67
2021/09/09 01:25:13;;;;;;;31.50;25.17;;;;;;;12.59;100.00;95657.75;1027120;28;20269;-69
2021/09/09 01:25:43;;;;;;;41.65;29.52;;;;;;;12.68;100.00;95666.63;1027456;28;20030;-67
2021/09/09 01:26:14;;;;;;;40.35;30.63;;;;;;;12.68;100.00;95664.00;1025653;28;20034;-66
2021/09/09 01:27:01;;;;;;;42.45;30.05;;;;;;;12.73;100.00;95672.59;1028806;28;20018;-66
2021/09/09 01:27:32;;;;;;;32.95;25.52;;;;;;;12.68;100.00;95664.00;1035969;28;20133;-67
2021/09/09 01:28:03;;;;;;;36.78;27.85;;;;;;;12.81;100.00;95668.59;1033003;28;20261;-69
2021/09/09 01:28:33;;;;;;;39.47;29.88;;;;;;;12.77;100.00;95670.22;1030301;28;20074;-63
2021/09/09 01:29:04;;;;;;;39.63;29.65;;;;;;;12.78;100.00;95663.13;1030630;28;22370;-69
2021/09/09 01:29:41;;;;;;;39.97;29.52;;;;;;;12.79;100.00;95667.31;1034347;28;20444;-67
2021/09/09 01:30:12;;;;;;;41.17;29.90;;;;;;;12.82;100.00;95669.38;1033641;28;20021;-67
2021/09/09 01:30:42;;;;;;;42.08;32.03;;;;;;;12.84;100.00;95668.03;1028361;28;20930;-64
2021/09/09 01:31:13;;;;;;;42.22;32.03;;;;;;;12.83;100.00;95666.47;1026016;28;20031;-67
2021/09/09 01:31:44;;;;;;;41.15;31.98;;;;;;;12.87;100.00;95670.09;1027089;28;20034;-66
2021/09/09 01:32:14;;;;;;;42.58;31.00;;;;;;;12.81;100.00;95658.06;1027253;28;20083;-67
2021/09/09 01:32:45;;;;;;;39.03;30.35;;;;;;;12.85;100.00;95666.97;1026601;28;20019;-67
2021/09/09 01:33:15;;;;;;;42.63;32.22;;;;;;;12.82;100.00;95654.38;1025912;28;20673;-67
2021/09/09 01:33:45;;;;;;;40.63;30.63;;;;;;;12.90;100.00;95661.66;1021303;28;20397;-67
2021/09/09 01:34:16;;;;;;;39.70;30.45;;;;;;;12.87;100.00;95670.09;1022539;28;20027;-67
2021/09/09 01:34:46;;;;;;;40.33;31.25;;;;;;;12.89;100.00;95670.63;1023350;28;20394;-67
2021/09/09 01:35:17;;;;;;;39.72;30.33;;;;;;;12.88;100.00;95669.06;1026090;28;20408;-68
2021/09/09 01:35:47;;;;;;;42.25;30.27;;;;;;;12.91;100.00;95670.34;1024589;28;20650;-67
2021/09/09 01:36:18;;;;;;;41.38;29.25;;;;;;;12.92;100.00;95669.28;1023769;28;20050;-67
2021/09/09 01:36:48;;;;;;;39.70;29.60;;;;;;;12.90;100.00;95660.88;1022002;28;20056;-65
2021/09/09 01:37:19;;;;;;;39.35;30.25;;;;;;;12.92;100.00;95662.16;1024473;28;20043;-67
2021/09/09 01:37:52;;;;;;;40.05;29.60;;;;;;;12.97;100.00;95664.75;1030612;28;20046;-68
2021/09/09 01:38:23;;;;;;;40.72;31.35;;;;;;;12.96;100.00;95665.81;1031501;28;20357;-67
2021/09/09 01:38:53;;;;;;;41.70;30.77;;;;;;;12.97;100.00;95671.84;1030270;28;20065;-67
2021/09/09 01:39:24;;;;;;;41.67;32.50;;;;;;;12.97;100.00;95671.84;1026729;28;20023;-66
2021/09/09 01:39:55;;;;;;;43.72;32.05;;;;;;;12.98;100.00;95665.53;1026449;28;20055;-67
2021/09/09 01:40:27;;;;;;;38.45;31.30;;;;;;;13.04;100.00;95666.25;1024827;28;20038;-67
2021/09/09 01:40:58;;;;;;;42.83;30.73;;;;;;;12.99;100.00;95661.84;1030655;28;20663;-67
2021/09/09 01:41:28;;;;;;;40.03;31.80;;;;;;;13.05;100.00;95667.84;1034557;28;20269;-68
2021/09/09 01:41:59;;;;;;;42.25;31.33;;;;;;;13.09;100.00;95671.50;1026759;28;20022;-67
2021/09/09 01:42:29;;;;;;;41.38;31.17;;;;;;;13.04;100.00;95659.13;1026764;28;20035;-65
2021/09/09 01:43:00;;;;;;;41.78;31.23;;;;;;;13.05;100.00;95662.59;1018521;29;20131;-67
2021/09/09 01:43:30;;;;;;;38.33;29.90;;;;;;;13.11;100.00;95664.06;1026578;28;20113;-68
2021/09/09 01:44:01;;;;;;;37.30;29.70;;;;;;;13.08;100.00;95662.81;1026604;28;20027;-68
2021/09/09 01:44:31;;;;;;;40.67;28.65;;;;;;;13.09;100.00;95661.72;1029471;28;20026;-68
2021/09/09 01:45:02;;;;;;;39.28;30.17;;;;;;;13.11;100.00;95662.25;1027266;28;20049;-68
2021/09/09 01:45:32;;;;;;;38.42;30.50;;;;;;;13.12;100.00;95665.66;1023512;28;20031;-67
2021/09/09 01:46:03;;;;;;;41.50;27.88;;;;;;;13.10;100.00;95670.41;1026359;28;20022;-68
2021/09/09 01:46:33;;;;;;;41.03;30.10;;;;;;;13.07;100.00;95663.06;1026461;28;20138;-67
2021/09/09 01:47:04;;;;;;;38.03;29.20;;;;;;;13.09;100.00;95666.22;1026004;28;20038;-66
2021/09/09 01:47:34;;;;;;;42.72;29.55;;;;;;;13.06;100.00;95666.78;1029261;28;20023;-67
2021/09/09 01:48:05;;;;;;;37.55;29.35;;;;;;;13.05;100.00;95667.84;1026546;28;20034;-67
2021/09/09 01:48:35;;;;;;;38.63;28.75;;;;;;;13.00;100.00;95666.03;1022483;28;20039;-68
2021/09/09 01:49:06;;;;;;;39.00;28.83;;;;;;;13.00;100.00;95668.66;1029986;28;20508;-68
2021/09/09 01:49:36;;;;;;;39.75;29.35;;;;;;;12.93;100.00;95660.31;1030318;28;20675;-69
2021/09/09 01:50:07;;;;;;;36.92;29.25;;;;;;;12.96;100.00;95665.03;1022538;29;20027;-68
2021/09/09 01:50:38;;;;;;;40.53;31.65;;;;;;;12.93;100.00;95661.09;1026049;28;20039;-68
2021/09/09 01:51:11;;;;;;;41.10;30.98;;;;;;;12.95;100.00;95669.50;1029988;28;20037;-68
2021/09/09 01:51:41;;;;;;;43.63;30.85;;;;;;;12.92;100.00;95670.06;1029944;28;20019;-68
2021/09/09 01:52:12;;;;;;;45.45;32.00;;;;;;;12.93;100.00;95668.22;1027298;28;20799;-68
2021/09/09 01:52:42;;;;;;;41.00;30.70;;;;;;;12.92;100.00;95670.06;1029451;28;20144;-65
2021/09/09 01:53:13;;;;;;;39.00;30.25;;;;;;;12.83;100.00;95663.84;1022546;28;20035;-66
2021/09/09 01:53:43;;;;;;;39.35;29.60;;;;;;;12.89;100.00;95670.63;1034556;28;20042;-68
2021/09/09 01:54:13;;;;;;;44.50;30.83;;;;;;;12.93;100.00;95668.22;1031345;28;20053;-68
2021/09/09 01:54:44;;;;;;;35.38;30.45;;;;;;;12.89;100.00;95669.84;1026562;28;20093;-67
2021/09/09 01:55:14;;;;;;;38.80;29.92;;;;;;;12.87;100.00;95667.47;1026230;28;20038;-67
2021/09/09 01:55:45;;;;;;;42.15;28.35;;;;;;;12.85;100.00;95674.09;1025948;28;20034;-68
2021/09/09 01:56:15;;;;;;;38.42;30.00;;;;;;;12.85;100.00;95669.63;1030240;28;20022;-67
2021/09/09 01:56:46;;;;;;;41.53;31.77;;;;;;;12.84;100.00;95669.88;1034440;28;20041;-68
2021/09/09 01:57:16;;;;;;;45.10;33.17;;;;;;;12.87;100.00;95672.75;1027439;28;20117;-67
2021/09/09 01:57:50;;;;;;;40.67;31.92;;;;;;;12.86;100.00;95668.53;1028085;28;20528;-67
2021/09/09 01:58:20;;;;;;;43.85;32.45;;;;;;;12.88;100.00;95669.06;1035194;28;20025;-67
2021/09/09 01:58:51;;;;;;;38.63;32.00;;;;;;;12.93;100.00;95666.38;1031534;28;20269;-67
2021/09/09 01:59:21;;;;;;;47.63;32.08;;;;;;;13.00;100.00;95671.31;1030574;28;20030;-68
2021/09/09 01:59:56;;;;;;;38.70;30.13;;;;;;;13.01;100.00;95672.09;1030939;28;20073;-67
2021/09/09 02:00:26;;;;;;;38.45;29.67;;;;;;;12.90;100.00;95656.38;1032429;28;20026;-68
2021/09/09 02:00:57;;;;;;;39.30;29.20;;;;;;;13.03;100.00;95675.25;1039234;28;20307;-65
2021/09/09 02:01:30;;;;;;;38.55;29.30;;;;;;;13.02;100.00;95669.19;1030369;28;20878;-67
2021/09/09 02:02:01;;;;;;;37.03;28.70;;;;;;;13.10;100.00;95675.69;1022498;28;20027;-67
2021/09/09 02:02:31;;;;;;;35.40;28.20;;;;;;;13.09;100.00;95674.13;1026844;28;20289;-67
2021/09/09 02:03:02;;;;;;;37.88;28.80;;;;;;;13.10;100.00;95665.16;1027671;28;20101;-67
2021/09/09 02:03:32;;;;;;;37.13;28.30;;;;;;;13.10;100.00;95670.41;1030953;28;20034;-67
2021/09/09 02:04:03;;;;;;;34.17;27.15;;;;;;;13.10;100.00;95659.88;1035181;28;20578;-67
2021/09/09 02:04:33;;;;;;;37.95;28.33;;;;;;;13.16;100.00;95669.31;1034045;28;20506;-67
2021/09/09 02:05:04;;;;;;;35.83;26.92;;;;;;;13.14;100.00;95666.94;1034847;28;20042;-67
2021/09/09 02:05:35;;;;;;;32.17;26.48;;;;;;;13.11;100.00;95662.25;1035184;28;20133;-67
2021/09/09 02:06:05;;;;;;;34.90;28.85;;;;;;;13.15;100.00;95665.09;1039448;28;20033;-67
2021/09/09 02:06:36;;;;;;;33.28;26.75;;;;;;;13.16;100.00;95675.34;1037712;28;20590;-67
2021/09/09 02:07:06;;;;;;;32.75;26.80;;;;;;;13.17;100.00;95670.88;1030856;28;20029;-66
2021/09/09 02:07:37;;;;;;;33.42;27.13;;;;;;;13.19;100.00;95674.00;1030336;28;20392;-66
2021/09/09 02:08:07;;;;;;;31.20;26.65;;;;;;;13.19;100.00;95671.38;1030125;28;20069;-64
2021/09/09 02:08:37;;;;;;;33.35;26.08;;;;;;;13.17;100.00;95670.88;1033201;28;20026;-66
2021/09/09 02:09:08;;;;;;;33.40;26.60;;;;;;;13.18;100.00;95670.59;1039442;28;20026;-67
2021/09/09 02:09:38;;;;;;;29.42;25.80;;;;;;;13.18;100.00;95672.44;1039354;28;20037;-67
2021/09/09 02:10:09;;;;;;;33.05;26.10;;;;;;;13.20;100.00;95671.09;1033630;28;20029;-66
2021/09/09 02:10:40;;;;;;;31.67;25.92;;;;;;;12.99;100.00;95640.78;1031257;28;20042;-65
2021/09/09 02:11:10;;;;;;;29.50;24.42;;;;;;;13.12;100.00;95663.81;1030586;28;20026;-65
2021/09/09 02:11:41;;;;;;;32.08;24.15;;;;;;;13.20;100.00;95668.44;1027116;28;20019;-67
2021/09/09 02:12:11;;;;;;;30.33;24.73;;;;;;;13.22;100.00;95673.47;1034261;28;20037;-67
2021/09/09 02:12:42;;;;;;;30.20;24.35;;;;;;;13.23;100.00;95672.38;1035240;28;20026;-67
2021/09/09 02:13:12;;;;;;;29.52;23.52;;;;;;;13.23;100.00;95669.75;1035353;28;20030;-67
2021/09/09 02:13:42;;;;;;;31.60;24.08;;;;;;;13.25;100.00;95667.66;1032817;28;20052;-67
2021/09/09 02:14:13;;;;;;;28.55;23.42;;;;;;;13.27;100.00;95665.50;1027132;28;20038;-67
2021/09/09 02:14:43;;;;;;;31.08;24.85;;;;;;;13.28;100.00;95668.94;1031078;28;20030;-67
2021/09/09 02:15:14;;;;;;;28.95;23.30;;;;;;;13.29;100.00;95663.38;1031011;28;20030;-67
2021/09/09 02:15:44;;;;;;;31.63;23.27;;;;;;;13.24;100.00;95655.53;1039479;28;20021;-67
2021/09/09 02:16:15;;;;;;;25.23;22.35;;;;;;;13.27;100.00;95665.50;1035017;28;20163;-67
2021/09/09 02:16:45;;;;;;;29.95;23.42;;;;;;;13.29;100.00;95668.66;1031438;28;20093;-64
2021/09/09 02:17:16;;;;;;;27.90;23.70;;;;;;;13.29;100.00;95666.03;1030914;28;20034;-68
2021/09/09 02:17:46;;;;;;;25.52;21.38;;;;;;;13.33;100.00;95664.38;1035164;28;20456;-64
2021/09/09 02:18:17;;;;;;;24.80;21.38;;;;;;;13.29;100.00;95652.84;1026643;28;20467;-67
2021/09/09 02:18:47;;;;;;;27.20;21.15;;;;;;;13.29;100.00;95658.13;1023089;29;20023;-68
2021/09/09 02:19:17;;;;;;;29.75;22.90;;;;;;;13.31;100.00;95658.63;1027028;28;20883;-68
2021/09/09 02:19:48;;;;;;;25.70;21.98;;;;;;;13.32;100.00;95662.84;1027173;28;20569;-67
2021/09/09 02:20:18;;;;;;;28.05;22.05;;;;;;;13.29;100.00;95658.13;1031179;28;20393;-68